sensor_id;sensor_type;location;lat;lon;timestamp;pressure;altitude;pressure_sealevel;temperature;humidity
6427;BME280;3246;42.664;23.308;2022-09-09T00:00:47;120715.88;;;-142.62;62.44
6427;BME280;3246;42.664;23.308;2022-09-09T00:03:17;120715.88;;;-142.62;62.47
6427;BME280;3246;42.664;23.308;2022-09-09T00:05:51;120715.88;;;-142.62;62.86
6427;BME280;3246;42.664;23.308;2022-09-09T00:08:26;120715.88;;;-142.62;62.79
6427;BME280;3246;42.664;23.308;2022-09-09T00:10:58;120715.88;;;-142.62;63.14
6427;BME280;3246;42.664;23.308;2022-09-09T00:13:33;120715.88;;;-142.62;63.16
6427;BME280;3246;42.664;23.308;2022-09-09T00:16:04;120715.88;;;-142.62;63.38
6427;BME280;3246;42.664;23.308;2022-09-09T00:18:45;120715.88;;;-142.62;64.03
6427;BME280;3246;42.664;23.308;2022-09-09T00:21:14;120715.88;;;-142.62;63.87
6427;BME280;3246;42.664;23.308;2022-09-09T00:23:45;120715.88;;;-142.62;63.63
6427;BME280;3246;42.664;23.308;2022-09-09T00:26:20;120715.88;;;-142.62;63.67
6427;BME280;3246;42.664;23.308;2022-09-09T00:28:55;120715.88;;;-142.62;63.78
6427;BME280;3246;42.664;23.308;2022-09-09T00:31:28;120715.88;;;-142.62;63.64
6427;BME280;3246;42.664;23.308;2022-09-09T00:34:00;120715.88;;;-142.62;63.71
6427;BME280;3246;42.664;23.308;2022-09-09T00:36:31;120715.88;;;-142.62;63.76
6427;BME280;3246;42.664;23.308;2022-09-09T00:39:00;120715.88;;;-142.62;64.15
6427;BME280;3246;42.664;23.308;2022-09-09T00:41:38;120715.88;;;-142.62;64.37
6427;BME280;3246;42.664;23.308;2022-09-09T00:44:23;120715.88;;;-142.62;64.02
6427;BME280;3246;42.664;23.308;2022-09-09T00:47:19;120715.88;;;-142.62;64.26
6427;BME280;3246;42.664;23.308;2022-09-09T00:50:00;120715.88;;;-142.62;64.27
6427;BME280;3246;42.664;23.308;2022-09-09T00:52:36;120715.88;;;-142.62;64.46
6427;BME280;3246;42.664;23.308;2022-09-09T00:55:11;120715.88;;;-142.62;65.19
6427;BME280;3246;42.664;23.308;2022-09-09T00:57:41;120715.88;;;-142.62;65.54
6427;BME280;3246;42.664;23.308;2022-09-09T01:00:21;120715.88;;;-142.62;65.65
6427;BME280;3246;42.664;23.308;2022-09-09T01:02:56;120715.88;;;-142.62;65.99
6427;BME280;3246;42.664;23.308;2022-09-09T01:05:33;120715.88;;;-142.62;65.80
6427;BME280;3246;42.664;23.308;2022-09-09T01:08:03;120715.88;;;-142.62;66.21
6427;BME280;3246;42.664;23.308;2022-09-09T01:10:39;120715.88;;;-142.62;66.13
6427;BME280;3246;42.664;23.308;2022-09-09T01:13:14;120715.88;;;-142.62;65.78
6427;BME280;3246;42.664;23.308;2022-09-09T01:15:45;120715.88;;;-142.62;66.42
6427;BME280;3246;42.664;23.308;2022-09-09T01:18:16;120715.88;;;-142.62;67.00
6427;BME280;3246;42.664;23.308;2022-09-09T01:20:48;120715.88;;;-142.62;66.91
6427;BME280;3246;42.664;23.308;2022-09-09T01:23:34;120715.88;;;-142.62;66.60
6427;BME280;3246;42.664;23.308;2022-09-09T01:26:27;120715.88;;;-142.62;67.20
6427;BME280;3246;42.664;23.308;2022-09-09T01:28:54;120715.88;;;-142.62;67.24
6427;BME280;3246;42.664;23.308;2022-09-09T01:31:23;120715.88;;;-142.62;67.33
6427;BME280;3246;42.664;23.308;2022-09-09T01:33:53;120715.88;;;-142.62;66.99
6427;BME280;3246;42.664;23.308;2022-09-09T01:36:26;120715.88;;;-142.62;67.92
6427;BME280;3246;42.664;23.308;2022-09-09T01:38:55;120715.88;;;-142.62;68.13
6427;BME280;3246;42.664;23.308;2022-09-09T01:41:23;120715.88;;;-142.62;68.48
6427;BME280;3246;42.664;23.308;2022-09-09T01:43:50;120715.88;;;-142.62;69.15
6427;BME280;3246;42.664;23.308;2022-09-09T01:46:18;120715.88;;;-142.62;68.52
6427;BME280;3246;42.664;23.308;2022-09-09T01:48:48;120715.88;;;-142.62;68.75
6427;BME280;3246;42.664;23.308;2022-09-09T01:51:16;120715.88;;;-142.62;68.76
6427;BME280;3246;42.664;23.308;2022-09-09T01:53:44;120715.88;;;-142.62;68.56
6427;BME280;3246;42.664;23.308;2022-09-09T01:56:19;120715.88;;;-142.62;68.78
6427;BME280;3246;42.664;23.308;2022-09-09T01:59:03;120715.88;;;-142.62;69.66
6427;BME280;3246;42.664;23.308;2022-09-09T02:01:42;120715.88;;;-142.62;68.64
6427;BME280;3246;42.664;23.308;2022-09-09T02:04:21;120715.88;;;-142.62;69.35
6427;BME280;3246;42.664;23.308;2022-09-09T02:06:54;120715.88;;;-142.62;70.24
6427;BME280;3246;42.664;23.308;2022-09-09T02:09:23;120715.88;;;-142.62;70.79
6427;BME280;3246;42.664;23.308;2022-09-09T02:11:55;120715.88;;;-142.62;70.11
6427;BME280;3246;42.664;23.308;2022-09-09T02:14:31;120715.88;;;-142.62;70.14
6427;BME280;3246;42.664;23.308;2022-09-09T02:17:04;120715.88;;;-142.62;69.89
6427;BME280;3246;42.664;23.308;2022-09-09T02:19:37;120715.88;;;-142.62;69.63
6427;BME280;3246;42.664;23.308;2022-09-09T02:22:06;120715.88;;;-142.62;69.63
6427;BME280;3246;42.664;23.308;2022-09-09T02:24:35;120715.88;;;-142.62;70.05
6427;BME280;3246;42.664;23.308;2022-09-09T02:27:04;120715.88;;;-142.62;69.81
6427;BME280;3246;42.664;23.308;2022-09-09T02:29:38;120715.88;;;-142.62;70.25
6427;BME280;3246;42.664;23.308;2022-09-09T02:32:07;120715.88;;;-142.62;69.56
6427;BME280;3246;42.664;23.308;2022-09-09T02:34:36;120715.88;;;-142.62;69.66
6427;BME280;3246;42.664;23.308;2022-09-09T02:37:08;120715.88;;;-142.62;69.15
6427;BME280;3246;42.664;23.308;2022-09-09T02:39:36;120715.88;;;-142.62;69.74
6427;BME280;3246;42.664;23.308;2022-09-09T02:42:04;120715.88;;;-142.62;70.11
6427;BME280;3246;42.664;23.308;2022-09-09T02:44:35;120715.88;;;-142.62;70.85
6427;BME280;3246;42.664;23.308;2022-09-09T02:47:25;120715.88;;;-142.62;71.21
6427;BME280;3246;42.664;23.308;2022-09-09T02:50:02;120715.88;;;-142.62;71.23
6427;BME280;3246;42.664;23.308;2022-09-09T02:52:38;120715.88;;;-142.62;71.43
6427;BME280;3246;42.664;23.308;2022-09-09T02:55:16;120715.88;;;-142.62;71.54
6427;BME280;3246;42.664;23.308;2022-09-09T02:57:46;120715.88;;;-142.62;71.28
6427;BME280;3246;42.664;23.308;2022-09-09T03:00:15;120715.88;;;-142.62;71.07
6427;BME280;3246;42.664;23.308;2022-09-09T03:02:42;120715.88;;;-142.62;70.78
6427;BME280;3246;42.664;23.308;2022-09-09T03:05:10;120715.88;;;-142.62;70.86
6427;BME280;3246;42.664;23.308;2022-09-09T03:07:38;120715.88;;;-142.62;70.76
6427;BME280;3246;42.664;23.308;2022-09-09T03:10:06;120715.88;;;-142.62;70.99
6427;BME280;3246;42.664;23.308;2022-09-09T03:12:33;120715.88;;;-142.62;70.17
6427;BME280;3246;42.664;23.308;2022-09-09T03:15:00;120715.88;;;-142.62;69.20
6427;BME280;3246;42.664;23.308;2022-09-09T03:17:28;120715.88;;;-142.62;68.53
6427;BME280;3246;42.664;23.308;2022-09-09T03:19:55;120715.88;;;-142.62;68.82
6427;BME280;3246;42.664;23.308;2022-09-09T03:22:24;120715.88;;;-142.62;69.10
6427;BME280;3246;42.664;23.308;2022-09-09T03:24:51;120715.88;;;-142.62;69.12
6427;BME280;3246;42.664;23.308;2022-09-09T03:27:18;120715.88;;;-142.62;69.57
6427;BME280;3246;42.664;23.308;2022-09-09T03:29:45;120715.88;;;-142.62;69.39
6427;BME280;3246;42.664;23.308;2022-09-09T03:32:12;120715.88;;;-142.62;69.12
6427;BME280;3246;42.664;23.308;2022-09-09T03:34:44;120715.88;;;-142.62;68.73
6427;BME280;3246;42.664;23.308;2022-09-09T03:37:15;120715.88;;;-142.62;68.99
6427;BME280;3246;42.664;23.308;2022-09-09T03:39:42;120715.88;;;-142.62;69.00
6427;BME280;3246;42.664;23.308;2022-09-09T03:42:09;120715.88;;;-142.62;68.88
6427;BME280;3246;42.664;23.308;2022-09-09T03:44:36;120715.88;;;-142.62;68.76
6427;BME280;3246;42.664;23.308;2022-09-09T03:47:03;120715.88;;;-142.62;69.42
6427;BME280;3246;42.664;23.308;2022-09-09T03:49:30;120715.88;;;-142.62;69.83
6427;BME280;3246;42.664;23.308;2022-09-09T03:51:58;120715.88;;;-142.62;69.41
6427;BME280;3246;42.664;23.308;2022-09-09T03:54:26;120715.88;;;-142.62;69.83
6427;BME280;3246;42.664;23.308;2022-09-09T03:56:53;120715.88;;;-142.62;69.85
6427;BME280;3246;42.664;23.308;2022-09-09T03:59:20;120715.88;;;-142.62;69.66
6427;BME280;3246;42.664;23.308;2022-09-09T04:01:48;120715.88;;;-142.62;70.07
6427;BME280;3246;42.664;23.308;2022-09-09T04:04:15;120715.88;;;-142.62;70.02
6427;BME280;3246;42.664;23.308;2022-09-09T04:06:41;120715.88;;;-142.62;70.05
6427;BME280;3246;42.664;23.308;2022-09-09T04:09:10;120715.88;;;-142.62;70.26
6427;BME280;3246;42.664;23.308;2022-09-09T04:11:36;120715.88;;;-142.62;69.90
6427;BME280;3246;42.664;23.308;2022-09-09T04:14:03;120715.88;;;-142.62;69.88
6427;BME280;3246;42.664;23.308;2022-09-09T04:16:31;120715.88;;;-142.62;69.58
6427;BME280;3246;42.664;23.308;2022-09-09T04:18:58;120715.88;;;-142.62;69.58
6427;BME280;3246;42.664;23.308;2022-09-09T04:21:25;120715.88;;;-142.62;69.54
6427;BME280;3246;42.664;23.308;2022-09-09T04:23:52;120715.88;;;-142.62;69.47
6427;BME280;3246;42.664;23.308;2022-09-09T04:26:20;120715.88;;;-142.62;69.17
6427;BME280;3246;42.664;23.308;2022-09-09T04:28:46;120715.88;;;-142.62;68.95
6427;BME280;3246;42.664;23.308;2022-09-09T04:31:15;120715.88;;;-142.62;69.33
6427;BME280;3246;42.664;23.308;2022-09-09T04:33:43;120715.88;;;-142.62;69.41
6427;BME280;3246;42.664;23.308;2022-09-09T04:36:11;120715.88;;;-142.62;69.65
6427;BME280;3246;42.664;23.308;2022-09-09T04:38:39;120715.88;;;-142.62;69.51
6427;BME280;3246;42.664;23.308;2022-09-09T04:41:06;120715.88;;;-142.62;69.35
6427;BME280;3246;42.664;23.308;2022-09-09T04:43:34;120715.88;;;-142.62;69.49
6427;BME280;3246;42.664;23.308;2022-09-09T04:46:01;120715.88;;;-142.62;69.35
6427;BME280;3246;42.664;23.308;2022-09-09T04:48:27;120715.88;;;-142.62;69.20
6427;BME280;3246;42.664;23.308;2022-09-09T04:50:56;120715.88;;;-142.62;68.48
6427;BME280;3246;42.664;23.308;2022-09-09T04:53:23;120715.88;;;-142.62;68.33
6427;BME280;3246;42.664;23.308;2022-09-09T04:55:51;120715.88;;;-142.62;68.42
6427;BME280;3246;42.664;23.308;2022-09-09T04:58:17;120715.88;;;-142.62;68.83
6427;BME280;3246;42.664;23.308;2022-09-09T05:00:48;120715.88;;;-142.62;68.71
6427;BME280;3246;42.664;23.308;2022-09-09T05:03:16;120715.88;;;-142.62;68.51
6427;BME280;3246;42.664;23.308;2022-09-09T05:05:43;120715.88;;;-142.62;69.36
6427;BME280;3246;42.664;23.308;2022-09-09T05:08:10;120715.88;;;-142.62;68.78
6427;BME280;3246;42.664;23.308;2022-09-09T05:10:38;120715.88;;;-142.62;68.57
6427;BME280;3246;42.664;23.308;2022-09-09T05:13:07;120715.88;;;-142.62;68.48
6427;BME280;3246;42.664;23.308;2022-09-09T05:15:34;120715.88;;;-142.62;68.63
6427;BME280;3246;42.664;23.308;2022-09-09T05:18:02;120715.88;;;-142.62;68.40
6427;BME280;3246;42.664;23.308;2022-09-09T05:20:29;120715.88;;;-142.62;68.21
6427;BME280;3246;42.664;23.308;2022-09-09T05:22:56;120715.88;;;-142.62;67.86
6427;BME280;3246;42.664;23.308;2022-09-09T05:25:23;120715.88;;;-142.62;67.56
6427;BME280;3246;42.664;23.308;2022-09-09T05:27:51;120715.88;;;-142.62;67.17
6427;BME280;3246;42.664;23.308;2022-09-09T05:30:19;120715.88;;;-142.62;67.40
6427;BME280;3246;42.664;23.308;2022-09-09T05:32:45;120715.88;;;-142.62;67.26
6427;BME280;3246;42.664;23.308;2022-09-09T05:35:15;120715.88;;;-142.62;67.19
6427;BME280;3246;42.664;23.308;2022-09-09T05:37:44;120715.88;;;-142.62;67.33
6427;BME280;3246;42.664;23.308;2022-09-09T05:40:11;120715.88;;;-142.62;67.36
6427;BME280;3246;42.664;23.308;2022-09-09T05:42:38;120715.88;;;-142.62;67.86
6427;BME280;3246;42.664;23.308;2022-09-09T05:45:06;120715.88;;;-142.62;67.72
6427;BME280;3246;42.664;23.308;2022-09-09T05:47:34;120715.88;;;-142.62;68.05
6427;BME280;3246;42.664;23.308;2022-09-09T05:50:03;120715.88;;;-142.62;67.98
6427;BME280;3246;42.664;23.308;2022-09-09T05:52:31;120715.88;;;-142.62;67.62
6427;BME280;3246;42.664;23.308;2022-09-09T05:54:58;120715.88;;;-142.62;68.32
6427;BME280;3246;42.664;23.308;2022-09-09T05:57:25;120715.88;;;-142.62;68.48
6427;BME280;3246;42.664;23.308;2022-09-09T05:59:51;120715.88;;;-142.62;67.87
6427;BME280;3246;42.664;23.308;2022-09-09T06:02:19;120715.88;;;-142.62;67.52
6427;BME280;3246;42.664;23.308;2022-09-09T06:04:45;120715.88;;;-142.62;68.00
6427;BME280;3246;42.664;23.308;2022-09-09T06:07:12;120715.88;;;-142.62;68.27
6427;BME280;3246;42.664;23.308;2022-09-09T06:09:41;120715.88;;;-142.62;68.66
6427;BME280;3246;42.664;23.308;2022-09-09T06:12:08;120715.88;;;-142.62;68.35
6427;BME280;3246;42.664;23.308;2022-09-09T06:14:34;120715.88;;;-142.62;67.60
6427;BME280;3246;42.664;23.308;2022-09-09T06:17:02;120715.88;;;-142.62;67.36
6427;BME280;3246;42.664;23.308;2022-09-09T06:19:29;120715.88;;;-142.62;67.39
6427;BME280;3246;42.664;23.308;2022-09-09T06:21:56;120715.88;;;-142.62;67.11
6427;BME280;3246;42.664;23.308;2022-09-09T06:24:22;120715.88;;;-142.62;67.12
6427;BME280;3246;42.664;23.308;2022-09-09T06:26:51;120715.88;;;-142.62;67.33
6427;BME280;3246;42.664;23.308;2022-09-09T06:29:17;120715.88;;;-142.62;66.95
6427;BME280;3246;42.664;23.308;2022-09-09T06:31:44;120715.88;;;-142.62;66.57
6427;BME280;3246;42.664;23.308;2022-09-09T06:34:11;120715.88;;;-142.62;66.44
6427;BME280;3246;42.664;23.308;2022-09-09T06:36:39;120715.88;;;-142.62;65.13
6427;BME280;3246;42.664;23.308;2022-09-09T06:39:06;120715.88;;;-142.62;64.85
6427;BME280;3246;42.664;23.308;2022-09-09T06:41:34;120715.88;;;-142.62;64.26
6427;BME280;3246;42.664;23.308;2022-09-09T06:44:02;120715.88;;;-142.62;64.33
6427;BME280;3246;42.664;23.308;2022-09-09T06:46:30;120715.88;;;-142.62;63.72
6427;BME280;3246;42.664;23.308;2022-09-09T06:48:59;120715.88;;;-142.62;63.27
6427;BME280;3246;42.664;23.308;2022-09-09T06:51:27;120715.88;;;-142.62;62.60
6427;BME280;3246;42.664;23.308;2022-09-09T06:53:55;120715.88;;;-142.62;62.68
6427;BME280;3246;42.664;23.308;2022-09-09T06:56:24;120715.88;;;-142.62;62.31
6427;BME280;3246;42.664;23.308;2022-09-09T06:58:53;120715.88;;;-142.62;61.78
6427;BME280;3246;42.664;23.308;2022-09-09T07:01:23;120715.88;;;-142.62;61.56
6427;BME280;3246;42.664;23.308;2022-09-09T07:03:51;120715.88;;;-142.62;61.21
6427;BME280;3246;42.664;23.308;2022-09-09T07:06:20;120715.88;;;-142.62;61.32
6427;BME280;3246;42.664;23.308;2022-09-09T07:08:51;120715.88;;;-142.62;61.06
6427;BME280;3246;42.664;23.308;2022-09-09T07:11:19;120715.88;;;-142.62;60.57
6427;BME280;3246;42.664;23.308;2022-09-09T07:13:46;120715.88;;;-142.62;60.31
6427;BME280;3246;42.664;23.308;2022-09-09T07:16:15;120715.88;;;-142.62;60.40
6427;BME280;3246;42.664;23.308;2022-09-09T07:18:44;120715.88;;;-142.62;59.98
6427;BME280;3246;42.664;23.308;2022-09-09T07:21:12;120715.88;;;-142.62;60.08
6427;BME280;3246;42.664;23.308;2022-09-09T07:23:39;120715.88;;;-142.62;60.15
6427;BME280;3246;42.664;23.308;2022-09-09T07:26:11;120715.88;;;-142.62;59.73
6427;BME280;3246;42.664;23.308;2022-09-09T07:28:39;120715.88;;;-142.62;59.48
6427;BME280;3246;42.664;23.308;2022-09-09T07:31:08;120715.88;;;-142.62;58.77
6427;BME280;3246;42.664;23.308;2022-09-09T07:33:40;120715.88;;;-142.62;58.27
6427;BME280;3246;42.664;23.308;2022-09-09T07:36:12;120715.88;;;-142.62;57.94
6427;BME280;3246;42.664;23.308;2022-09-09T07:38:39;120715.88;;;-142.62;57.95
6427;BME280;3246;42.664;23.308;2022-09-09T07:41:10;120715.88;;;-142.62;57.46
6427;BME280;3246;42.664;23.308;2022-09-09T07:43:38;120715.88;;;-142.62;57.33
6427;BME280;3246;42.664;23.308;2022-09-09T07:46:06;120715.88;;;-142.62;56.75
6427;BME280;3246;42.664;23.308;2022-09-09T07:48:33;120715.88;;;-142.62;56.43
6427;BME280;3246;42.664;23.308;2022-09-09T07:51:07;120715.88;;;-142.62;55.90
6427;BME280;3246;42.664;23.308;2022-09-09T07:53:37;120715.88;;;-142.62;55.88
6427;BME280;3246;42.664;23.308;2022-09-09T07:56:07;120715.88;;;-142.62;56.67
6427;BME280;3246;42.664;23.308;2022-09-09T07:58:35;120715.88;;;-142.62;56.20
6427;BME280;3246;42.664;23.308;2022-09-09T08:01:06;120715.88;;;-142.62;56.25
6427;BME280;3246;42.664;23.308;2022-09-09T08:03:33;120715.88;;;-142.62;56.15
6427;BME280;3246;42.664;23.308;2022-09-09T08:06:00;120715.88;;;-142.62;55.57
6427;BME280;3246;42.664;23.308;2022-09-09T08:08:28;120715.88;;;-142.62;54.82
6427;BME280;3246;42.664;23.308;2022-09-09T08:11:03;120715.88;;;-142.62;55.04
6427;BME280;3246;42.664;23.308;2022-09-09T08:13:30;120715.88;;;-142.62;55.03
6427;BME280;3246;42.664;23.308;2022-09-09T08:16:05;120715.88;;;-142.62;55.02
6427;BME280;3246;42.664;23.308;2022-09-09T08:18:32;120715.88;;;-142.62;54.76
6427;BME280;3246;42.664;23.308;2022-09-09T08:21:05;120715.88;;;-142.62;54.27
6427;BME280;3246;42.664;23.308;2022-09-09T08:23:32;120715.88;;;-142.62;54.10
6427;BME280;3246;42.664;23.308;2022-09-09T08:26:05;120715.88;;;-142.62;52.98
6427;BME280;3246;42.664;23.308;2022-09-09T08:28:32;120715.88;;;-142.62;53.63
6427;BME280;3246;42.664;23.308;2022-09-09T08:31:06;120715.88;;;-142.62;53.75
6427;BME280;3246;42.664;23.308;2022-09-09T08:33:33;120715.88;;;-142.62;53.59
6427;BME280;3246;42.664;23.308;2022-09-09T08:36:01;120715.88;;;-142.62;53.71
6427;BME280;3246;42.664;23.308;2022-09-09T08:38:28;120715.88;;;-142.62;53.68
6427;BME280;3246;42.664;23.308;2022-09-09T08:41:09;120715.88;;;-142.62;53.23
6427;BME280;3246;42.664;23.308;2022-09-09T08:43:40;120715.88;;;-142.62;53.75
6427;BME280;3246;42.664;23.308;2022-09-09T08:46:12;120715.88;;;-142.62;52.86
6427;BME280;3246;42.664;23.308;2022-09-09T08:48:49;120715.88;;;-142.62;52.87
6427;BME280;3246;42.664;23.308;2022-09-09T08:51:18;120715.88;;;-142.62;52.93
6427;BME280;3246;42.664;23.308;2022-09-09T08:53:48;120715.88;;;-142.62;52.75
6427;BME280;3246;42.664;23.308;2022-09-09T08:56:20;120715.88;;;-142.62;52.94
6427;BME280;3246;42.664;23.308;2022-09-09T08:58:49;120715.88;;;-142.62;53.07
6427;BME280;3246;42.664;23.308;2022-09-09T09:01:28;120715.88;;;-142.62;52.37
6427;BME280;3246;42.664;23.308;2022-09-09T09:04:00;120715.88;;;-142.62;52.30
6427;BME280;3246;42.664;23.308;2022-09-09T09:06:40;120715.88;;;-142.62;52.38
6427;BME280;3246;42.664;23.308;2022-09-09T09:09:17;120715.88;;;-142.62;51.92
6427;BME280;3246;42.664;23.308;2022-09-09T09:11:51;120715.88;;;-142.62;51.84
6427;BME280;3246;42.664;23.308;2022-09-09T09:14:20;120715.88;;;-142.62;51.84
6427;BME280;3246;42.664;23.308;2022-09-09T09:16:52;120715.88;;;-142.62;50.90
6427;BME280;3246;42.664;23.308;2022-09-09T09:19:19;120715.88;;;-142.62;50.68
6427;BME280;3246;42.664;23.308;2022-09-09T09:21:51;120715.88;;;-142.62;50.97
6427;BME280;3246;42.664;23.308;2022-09-09T09:24:24;120715.88;;;-142.62;51.25
6427;BME280;3246;42.664;23.308;2022-09-09T09:26:55;120715.88;;;-142.62;51.22
6427;BME280;3246;42.664;23.308;2022-09-09T09:29:24;120715.88;;;-142.62;50.53
6427;BME280;3246;42.664;23.308;2022-09-09T09:31:53;120715.88;;;-142.62;50.41
6427;BME280;3246;42.664;23.308;2022-09-09T09:34:21;120715.88;;;-142.62;50.43
6427;BME280;3246;42.664;23.308;2022-09-09T09:36:53;120715.88;;;-142.62;50.42
6427;BME280;3246;42.664;23.308;2022-09-09T09:39:25;120715.88;;;-142.62;50.86
6427;BME280;3246;42.664;23.308;2022-09-09T09:41:52;120715.88;;;-142.62;51.22
6427;BME280;3246;42.664;23.308;2022-09-09T09:44:25;120715.88;;;-142.62;51.02
6427;BME280;3246;42.664;23.308;2022-09-09T09:47:04;120715.88;;;-142.62;49.49
6427;BME280;3246;42.664;23.308;2022-09-09T09:49:31;120715.88;;;-142.62;50.25
6427;BME280;3246;42.664;23.308;2022-09-09T09:52:00;120715.88;;;-142.62;50.53
6427;BME280;3246;42.664;23.308;2022-09-09T09:54:28;120715.88;;;-142.62;50.28
6427;BME280;3246;42.664;23.308;2022-09-09T09:56:56;120715.88;;;-142.62;50.34
6427;BME280;3246;42.664;23.308;2022-09-09T09:59:35;120715.88;;;-142.62;50.04
6427;BME280;3246;42.664;23.308;2022-09-09T10:02:19;120715.88;;;-142.62;50.13
6427;BME280;3246;42.664;23.308;2022-09-09T10:04:48;120715.88;;;-142.62;50.28
6427;BME280;3246;42.664;23.308;2022-09-09T10:07:18;120715.88;;;-142.62;50.53
6427;BME280;3246;42.664;23.308;2022-09-09T10:09:50;120715.88;;;-142.62;49.66
6427;BME280;3246;42.664;23.308;2022-09-09T10:12:28;120715.88;;;-142.62;50.49
6427;BME280;3246;42.664;23.308;2022-09-09T10:15:02;120715.88;;;-142.62;50.50
6427;BME280;3246;42.664;23.308;2022-09-09T10:17:39;120715.88;;;-142.62;50.34
6427;BME280;3246;42.664;23.308;2022-09-09T10:20:17;120715.88;;;-142.62;50.32
6427;BME280;3246;42.664;23.308;2022-09-09T10:22:50;120715.88;;;-142.62;51.54
6427;BME280;3246;42.664;23.308;2022-09-09T10:25:29;120715.88;;;-142.62;51.06
6427;BME280;3246;42.664;23.308;2022-09-09T10:28:18;120715.88;;;-142.62;50.72
6427;BME280;3246;42.664;23.308;2022-09-09T10:31:02;120715.88;;;-142.62;50.94
6427;BME280;3246;42.664;23.308;2022-09-09T10:33:37;120715.88;;;-142.62;51.39
6427;BME280;3246;42.664;23.308;2022-09-09T10:36:22;120715.88;;;-142.62;50.66
6427;BME280;3246;42.664;23.308;2022-09-09T10:38:57;120715.88;;;-142.62;50.85
6427;BME280;3246;42.664;23.308;2022-09-09T10:41:42;120715.88;;;-142.62;51.06
6427;BME280;3246;42.664;23.308;2022-09-09T10:44:21;120715.88;;;-142.62;50.74
6427;BME280;3246;42.664;23.308;2022-09-09T10:47:05;120715.88;;;-142.62;51.20
6427;BME280;3246;42.664;23.308;2022-09-09T10:49:59;120715.88;;;-142.62;51.17
6427;BME280;3246;42.664;23.308;2022-09-09T10:52:32;120715.88;;;-142.62;50.90
6427;BME280;3246;42.664;23.308;2022-09-09T10:55:10;120715.88;;;-142.62;51.41
6427;BME280;3246;42.664;23.308;2022-09-09T10:57:43;120715.88;;;-142.62;51.60
6427;BME280;3246;42.664;23.308;2022-09-09T11:00:16;120715.88;;;-142.62;51.72
6427;BME280;3246;42.664;23.308;2022-09-09T11:02:49;120715.88;;;-142.62;51.81
6427;BME280;3246;42.664;23.308;2022-09-09T11:05:19;120715.88;;;-142.62;51.79
6427;BME280;3246;42.664;23.308;2022-09-09T11:07:50;120715.88;;;-142.62;51.44
6427;BME280;3246;42.664;23.308;2022-09-09T11:10:24;120715.88;;;-142.62;51.17
6427;BME280;3246;42.664;23.308;2022-09-09T11:12:57;120715.88;;;-142.62;51.46
6427;BME280;3246;42.664;23.308;2022-09-09T11:15:31;120715.88;;;-142.62;52.23
6427;BME280;3246;42.664;23.308;2022-09-09T11:18:01;120715.88;;;-142.62;52.40
6427;BME280;3246;42.664;23.308;2022-09-09T11:20:31;120715.88;;;-142.62;52.64
6427;BME280;3246;42.664;23.308;2022-09-09T11:23:01;120715.88;;;-142.62;52.93
6427;BME280;3246;42.664;23.308;2022-09-09T11:25:32;120715.88;;;-142.62;52.83
6427;BME280;3246;42.664;23.308;2022-09-09T11:28:22;120715.88;;;-142.62;52.91
6427;BME280;3246;42.664;23.308;2022-09-09T11:31:08;120715.88;;;-142.62;53.35
6427;BME280;3246;42.664;23.308;2022-09-09T11:33:58;120715.88;;;-142.62;53.24
6427;BME280;3246;42.664;23.308;2022-09-09T11:36:56;120715.88;;;-142.62;53.44
6427;BME280;3246;42.664;23.308;2022-09-09T11:39:54;120715.88;;;-142.62;53.80
6427;BME280;3246;42.664;23.308;2022-09-09T11:42:27;120715.88;;;-142.62;53.65
6427;BME280;3246;42.664;23.308;2022-09-09T11:44:54;120715.88;;;-142.62;53.52
6427;BME280;3246;42.664;23.308;2022-09-09T11:47:24;120715.88;;;-142.62;53.66
6427;BME280;3246;42.664;23.308;2022-09-09T11:50:08;120715.88;;;-142.62;53.67
6427;BME280;3246;42.664;23.308;2022-09-09T11:52:38;120715.88;;;-142.62;53.68
6427;BME280;3246;42.664;23.308;2022-09-09T11:55:11;120715.88;;;-142.62;53.87
6427;BME280;3246;42.664;23.308;2022-09-09T11:57:39;120715.88;;;-142.62;53.40
6427;BME280;3246;42.664;23.308;2022-09-09T12:00:33;120715.88;;;-142.62;53.87
6427;BME280;3246;42.664;23.308;2022-09-09T12:03:02;120715.88;;;-142.62;53.59
6427;BME280;3246;42.664;23.308;2022-09-09T12:05:39;120715.88;;;-142.62;53.76
6427;BME280;3246;42.664;23.308;2022-09-09T12:08:09;120715.88;;;-142.62;53.43
6427;BME280;3246;42.664;23.308;2022-09-09T12:10:39;120715.88;;;-142.62;54.43
6427;BME280;3246;42.664;23.308;2022-09-09T12:13:16;120715.88;;;-142.62;53.32
6427;BME280;3246;42.664;23.308;2022-09-09T12:15:48;120715.88;;;-142.62;53.17
6427;BME280;3246;42.664;23.308;2022-09-09T12:18:22;120715.88;;;-142.62;52.86
6427;BME280;3246;42.664;23.308;2022-09-09T12:20:57;120715.88;;;-142.62;52.96
6427;BME280;3246;42.664;23.308;2022-09-09T12:23:37;120715.88;;;-142.62;53.07
6427;BME280;3246;42.664;23.308;2022-09-09T12:26:20;120715.88;;;-142.62;53.84
6427;BME280;3246;42.664;23.308;2022-09-09T12:29:02;120715.88;;;-142.62;53.36
6427;BME280;3246;42.664;23.308;2022-09-09T12:31:35;120715.88;;;-142.62;52.33
6427;BME280;3246;42.664;23.308;2022-09-09T12:34:10;120715.88;;;-142.62;52.91
6427;BME280;3246;42.664;23.308;2022-09-09T12:36:39;120715.88;;;-142.62;52.69
6427;BME280;3246;42.664;23.308;2022-09-09T12:39:14;120715.88;;;-142.62;52.89
6427;BME280;3246;42.664;23.308;2022-09-09T12:41:51;120715.88;;;-142.62;54.00
6427;BME280;3246;42.664;23.308;2022-09-09T12:44:21;120715.88;;;-142.62;51.91
6427;BME280;3246;42.664;23.308;2022-09-09T12:46:49;120715.88;;;-142.62;51.21
6427;BME280;3246;42.664;23.308;2022-09-09T12:49:27;120715.88;;;-142.62;52.01
6427;BME280;3246;42.664;23.308;2022-09-09T12:51:57;120715.88;;;-142.62;51.28
6427;BME280;3246;42.664;23.308;2022-09-09T12:54:25;120715.88;;;-142.62;65.39
6427;BME280;3246;42.664;23.308;2022-09-09T12:56:53;120715.88;;;-142.62;61.80
6427;BME280;3246;42.664;23.308;2022-09-09T12:59:23;120715.88;;;-142.62;53.50
6427;BME280;3246;42.664;23.308;2022-09-09T13:01:55;120715.88;;;-142.62;51.36